sensor_id;sensor_type;location;lat;lon;timestamp;temperature;humidity
27741;DHT22;15134;48.768;9.184;2022-10-15T00:00:26;14.80;99.90
27741;DHT22;15134;48.768;9.184;2022-10-15T00:02:52;14.80;99.90
27741;DHT22;15134;48.768;9.184;2022-10-15T00:05:18;14.80;99.90
27741;DHT22;15134;48.768;9.184;2022-10-15T00:07:44;14.80;99.90
27741;DHT22;15134;48.768;9.184;2022-10-15T00:10:10;14.80;99.90
27741;DHT22;15134;48.768;9.184;2022-10-15T00:12:35;14.80;99.90
27741;DHT22;15134;48.768;9.184;2022-10-15T00:15:02;14.80;99.90
27741;DHT22;15134;48.768;9.184;2022-10-15T00:17:28;14.80;99.90
27741;DHT22;15134;48.768;9.184;2022-10-15T00:19:53;14.90;99.90
27741;DHT22;15134;48.768;9.184;2022-10-15T00:22:19;14.90;99.90
27741;DHT22;15134;48.768;9.184;2022-10-15T00:24:45;14.90;99.90
27741;DHT22;15134;48.768;9.184;2022-10-15T00:27:10;14.90;99.90
27741;DHT22;15134;48.768;9.184;2022-10-15T00:29:37;14.90;99.90
27741;DHT22;15134;48.768;9.184;2022-10-15T00:32:02;14.90;99.90
27741;DHT22;15134;48.768;9.184;2022-10-15T00:34:28;14.90;99.90
27741;DHT22;15134;48.768;9.184;2022-10-15T00:36:55;14.90;99.90
27741;DHT22;15134;48.768;9.184;2022-10-15T00:39:21;14.90;99.90
27741;DHT22;15134;48.768;9.184;2022-10-15T00:41:46;15.00;99.90
27741;DHT22;15134;48.768;9.184;2022-10-15T00:50:02;15.00;99.90
27741;DHT22;15134;48.768;9.184;2022-10-15T00:52:33;15.00;99.90
27741;DHT22;15134;48.768;9.184;2022-10-15T00:55:20;15.00;99.90
27741;DHT22;15134;48.768;9.184;2022-10-15T00:57:48;15.00;99.90
27741;DHT22;15134;48.768;9.184;2022-10-15T01:00:16;15.00;99.90
27741;DHT22;15134;48.768;9.184;2022-10-15T01:02:43;15.00;99.90
27741;DHT22;15134;48.768;9.184;2022-10-15T01:05:09;15.10;99.90
27741;DHT22;15134;48.768;9.184;2022-10-15T01:07:37;15.00;99.90
27741;DHT22;15134;48.768;9.184;2022-10-15T01:10:04;15.10;99.90
27741;DHT22;15134;48.768;9.184;2022-10-15T01:18:48;15.00;99.90
27741;DHT22;15134;48.768;9.184;2022-10-15T01:21:35;15.10;99.90
27741;DHT22;15134;48.768;9.184;2022-10-15T01:30:15;15.10;99.90
27741;DHT22;15134;48.768;9.184;2022-10-15T01:33:03;15.10;99.90
27741;DHT22;15134;48.768;9.184;2022-10-15T01:44:21;15.10;99.90
27741;DHT22;15134;48.768;9.184;2022-10-15T01:47:21;15.10;99.90
27741;DHT22;15134;48.768;9.184;2022-10-15T01:49:49;15.10;99.90
27741;DHT22;15134;48.768;9.184;2022-10-15T01:52:20;15.10;99.90
27741;DHT22;15134;48.768;9.184;2022-10-15T01:54:49;15.10;99.90
27741;DHT22;15134;48.768;9.184;2022-10-15T01:57:18;15.10;99.90
27741;DHT22;15134;48.768;9.184;2022-10-15T01:59:45;15.10;99.90
27741;DHT22;15134;48.768;9.184;2022-10-15T02:02:11;15.10;99.90
27741;DHT22;15134;48.768;9.184;2022-10-15T02:04:38;15.10;99.90
27741;DHT22;15134;48.768;9.184;2022-10-15T02:07:23;15.10;99.90
27741;DHT22;15134;48.768;9.184;2022-10-15T02:10:04;15.10;99.90
27741;DHT22;15134;48.768;9.184;2022-10-15T02:23:19;15.20;99.90
27741;DHT22;15134;48.768;9.184;2022-10-15T02:25:48;15.20;99.90
27741;DHT22;15134;48.768;9.184;2022-10-15T02:28:16;15.20;99.90
27741;DHT22;15134;48.768;9.184;2022-10-15T02:30:45;15.20;99.90
27741;DHT22;15134;48.768;9.184;2022-10-15T02:33:13;15.20;99.90
27741;DHT22;15134;48.768;9.184;2022-10-15T02:35:42;15.20;99.90
27741;DHT22;15134;48.768;9.184;2022-10-15T02:38:11;15.10;99.90
27741;DHT22;15134;48.768;9.184;2022-10-15T02:40:40;15.10;99.90
27741;DHT22;15134;48.768;9.184;2022-10-15T02:43:09;15.20;99.90
27741;DHT22;15134;48.768;9.184;2022-10-15T02:45:36;15.20;99.90
27741;DHT22;15134;48.768;9.184;2022-10-15T02:48:02;15.20;99.90
27741;DHT22;15134;48.768;9.184;2022-10-15T02:50:28;15.20;99.90
27741;DHT22;15134;48.768;9.184;2022-10-15T02:52:54;15.20;99.90
27741;DHT22;15134;48.768;9.184;2022-10-15T02:55:19;15.30;99.90
27741;DHT22;15134;48.768;9.184;2022-10-15T02:57:45;15.30;99.90
27741;DHT22;15134;48.768;9.184;2022-10-15T03:00:11;15.30;99.90
27741;DHT22;15134;48.768;9.184;2022-10-15T03:02:39;15.30;99.90
27741;DHT22;15134;48.768;9.184;2022-10-15T03:05:05;15.30;99.90
27741;DHT22;15134;48.768;9.184;2022-10-15T03:07:31;15.30;99.90
27741;DHT22;15134;48.768;9.184;2022-10-15T03:09:57;15.30;99.90
27741;DHT22;15134;48.768;9.184;2022-10-15T03:12:23;15.30;99.90
27741;DHT22;15134;48.768;9.184;2022-10-15T03:14:51;15.30;99.90
27741;DHT22;15134;48.768;9.184;2022-10-15T03:17:17;15.40;99.90
27741;DHT22;15134;48.768;9.184;2022-10-15T03:19:43;15.40;99.90
27741;DHT22;15134;48.768;9.184;2022-10-15T03:22:09;15.40;99.90
27741;DHT22;15134;48.768;9.184;2022-10-15T03:24:45;15.40;99.90
27741;DHT22;15134;48.768;9.184;2022-10-15T03:27:11;15.40;99.90
27741;DHT22;15134;48.768;9.184;2022-10-15T03:29:37;15.40;99.90
27741;DHT22;15134;48.768;9.184;2022-10-15T03:32:03;15.40;99.90
27741;DHT22;15134;48.768;9.184;2022-10-15T03:34:29;15.40;99.90
27741;DHT22;15134;48.768;9.184;2022-10-15T03:36:54;15.40;99.90
27741;DHT22;15134;48.768;9.184;2022-10-15T03:39:21;15.40;99.90
27741;DHT22;15134;48.768;9.184;2022-10-15T03:41:51;15.50;99.90
27741;DHT22;15134;48.768;9.184;2022-10-15T03:44:22;15.50;99.90
27741;DHT22;15134;48.768;9.184;2022-10-15T03:46:58;15.50;99.90
27741;DHT22;15134;48.768;9.184;2022-10-15T03:49:27;15.50;99.90
27741;DHT22;15134;48.768;9.184;2022-10-15T03:51:53;15.50;99.90
27741;DHT22;15134;48.768;9.184;2022-10-15T03:54:19;15.50;99.90
27741;DHT22;15134;48.768;9.184;2022-10-15T03:56:49;15.50;99.90
27741;DHT22;15134;48.768;9.184;2022-10-15T03:59:27;15.50;99.90
27741;DHT22;15134;48.768;9.184;2022-10-15T04:01:58;15.50;99.90
27741;DHT22;15134;48.768;9.184;2022-10-15T04:04:24;15.50;99.90
27741;DHT22;15134;48.768;9.184;2022-10-15T04:06:50;15.60;99.90
27741;DHT22;15134;48.768;9.184;2022-10-15T04:09:17;15.50;99.90
27741;DHT22;15134;48.768;9.184;2022-10-15T04:11:43;15.50;99.90
27741;DHT22;15134;48.768;9.184;2022-10-15T04:14:09;15.50;99.90
27741;DHT22;15134;48.768;9.184;2022-10-15T04:16:35;15.50;99.90
27741;DHT22;15134;48.768;9.184;2022-10-15T04:19:10;15.50;99.90
27741;DHT22;15134;48.768;9.184;2022-10-15T04:21:36;15.50;99.90
27741;DHT22;15134;48.768;9.184;2022-10-15T04:24:03;15.50;99.90
27741;DHT22;15134;48.768;9.184;2022-10-15T04:26:34;15.50;99.90
27741;DHT22;15134;48.768;9.184;2022-10-15T04:29:00;15.50;99.90
27741;DHT22;15134;48.768;9.184;2022-10-15T04:31:26;15.50;99.90
27741;DHT22;15134;48.768;9.184;2022-10-15T04:33:52;15.50;99.90
27741;DHT22;15134;48.768;9.184;2022-10-15T04:36:18;15.50;99.90
27741;DHT22;15134;48.768;9.184;2022-10-15T04:39:06;15.50;99.90
27741;DHT22;15134;48.768;9.184;2022-10-15T04:41:41;15.50;99.90
27741;DHT22;15134;48.768;9.184;2022-10-15T04:44:20;15.50;99.90
27741;DHT22;15134;48.768;9.184;2022-10-15T04:46:55;15.50;99.90
27741;DHT22;15134;48.768;9.184;2022-10-15T04:49:32;15.50;99.90
27741;DHT22;15134;48.768;9.184;2022-10-15T04:52:00;15.50;99.90
27741;DHT22;15134;48.768;9.184;2022-10-15T04:54:28;15.50;99.90
27741;DHT22;15134;48.768;9.184;2022-10-15T04:57:02;15.50;99.90
27741;DHT22;15134;48.768;9.184;2022-10-15T04:59:29;15.60;99.90
27741;DHT22;15134;48.768;9.184;2022-10-15T05:02:22;15.60;99.90
27741;DHT22;15134;48.768;9.184;2022-10-15T05:04:53;15.60;99.90
27741;DHT22;15134;48.768;9.184;2022-10-15T05:07:19;15.50;99.90
27741;DHT22;15134;48.768;9.184;2022-10-15T05:09:46;15.60;99.90
27741;DHT22;15134;48.768;9.184;2022-10-15T05:12:13;15.60;99.90
27741;DHT22;15134;48.768;9.184;2022-10-15T05:14:38;15.50;99.90
27741;DHT22;15134;48.768;9.184;2022-10-15T05:17:09;15.50;99.90
27741;DHT22;15134;48.768;9.184;2022-10-15T05:19:39;15.50;99.90
27741;DHT22;15134;48.768;9.184;2022-10-15T05:22:07;15.60;99.90
27741;DHT22;15134;48.768;9.184;2022-10-15T05:24:37;15.60;99.90
27741;DHT22;15134;48.768;9.184;2022-10-15T05:27:10;15.60;99.90
27741;DHT22;15134;48.768;9.184;2022-10-15T05:29:38;15.60;99.90
27741;DHT22;15134;48.768;9.184;2022-10-15T05:32:04;15.50;99.90
27741;DHT22;15134;48.768;9.184;2022-10-15T05:34:30;15.50;99.90
27741;DHT22;15134;48.768;9.184;2022-10-15T05:37:07;15.50;99.90
27741;DHT22;15134;48.768;9.184;2022-10-15T05:39:32;15.60;99.90
27741;DHT22;15134;48.768;9.184;2022-10-15T05:41:59;15.60;99.90
27741;DHT22;15134;48.768;9.184;2022-10-15T05:44:37;15.50;99.90
27741;DHT22;15134;48.768;9.184;2022-10-15T05:47:03;15.60;99.90
27741;DHT22;15134;48.768;9.184;2022-10-15T05:49:29;15.60;99.90
27741;DHT22;15134;48.768;9.184;2022-10-15T05:52:10;15.60;99.90
27741;DHT22;15134;48.768;9.184;2022-10-15T05:54:55;15.60;99.90
27741;DHT22;15134;48.768;9.184;2022-10-15T05:57:21;15.60;99.90
27741;DHT22;15134;48.768;9.184;2022-10-15T05:59:46;15.50;99.90
27741;DHT22;15134;48.768;9.184;2022-10-15T06:02:12;15.60;99.90
27741;DHT22;15134;48.768;9.184;2022-10-15T06:04:41;15.50;99.90
27741;DHT22;15134;48.768;9.184;2022-10-15T06:07:07;15.50;99.90
27741;DHT22;15134;48.768;9.184;2022-10-15T06:09:33;15.50;99.90
27741;DHT22;15134;48.768;9.184;2022-10-15T06:11:59;15.50;99.90
27741;DHT22;15134;48.768;9.184;2022-10-15T06:14:25;15.60;99.90
27741;DHT22;15134;48.768;9.184;2022-10-15T06:16:51;15.50;99.90
27741;DHT22;15134;48.768;9.184;2022-10-15T06:19:19;15.60;99.90
27741;DHT22;15134;48.768;9.184;2022-10-15T06:21:45;15.60;99.90
27741;DHT22;15134;48.768;9.184;2022-10-15T06:24:11;15.60;99.90
27741;DHT22;15134;48.768;9.184;2022-10-15T06:26:36;15.50;99.90
27741;DHT22;15134;48.768;9.184;2022-10-15T06:29:02;15.50;99.90
27741;DHT22;15134;48.768;9.184;2022-10-15T06:31:28;15.60;99.90
27741;DHT22;15134;48.768;9.184;2022-10-15T06:33:53;15.60;99.90
27741;DHT22;15134;48.768;9.184;2022-10-15T06:36:19;15.60;99.90
27741;DHT22;15134;48.768;9.184;2022-10-15T06:38:46;15.60;99.90
27741;DHT22;15134;48.768;9.184;2022-10-15T06:41:12;15.60;99.90
27741;DHT22;15134;48.768;9.184;2022-10-15T06:43:38;15.60;99.90
27741;DHT22;15134;48.768;9.184;2022-10-15T06:46:04;15.60;99.90
27741;DHT22;15134;48.768;9.184;2022-10-15T06:48:31;15.60;99.90
27741;DHT22;15134;48.768;9.184;2022-10-15T06:51:01;15.60;99.90
27741;DHT22;15134;48.768;9.184;2022-10-15T06:53:28;15.60;99.90
27741;DHT22;15134;48.768;9.184;2022-10-15T06:56:01;15.60;99.90
27741;DHT22;15134;48.768;9.184;2022-10-15T06:58:29;15.60;99.90
27741;DHT22;15134;48.768;9.184;2022-10-15T07:01:02;15.60;99.90
27741;DHT22;15134;48.768;9.184;2022-10-15T07:03:28;15.60;99.90
27741;DHT22;15134;48.768;9.184;2022-10-15T07:05:54;15.60;99.90
27741;DHT22;15134;48.768;9.184;2022-10-15T07:08:20;15.60;99.90
27741;DHT22;15134;48.768;9.184;2022-10-15T07:10:46;15.60;99.90
27741;DHT22;15134;48.768;9.184;2022-10-15T07:13:12;15.60;99.90
27741;DHT22;15134;48.768;9.184;2022-10-15T07:15:37;15.60;99.90
27741;DHT22;15134;48.768;9.184;2022-10-15T07:18:03;15.60;99.90
27741;DHT22;15134;48.768;9.184;2022-10-15T07:20:29;15.60;99.90
27741;DHT22;15134;48.768;9.184;2022-10-15T07:22:59;15.70;99.90
27741;DHT22;15134;48.768;9.184;2022-10-15T07:25:28;15.70;99.90
27741;DHT22;15134;48.768;9.184;2022-10-15T07:27:55;15.70;99.90
27741;DHT22;15134;48.768;9.184;2022-10-15T07:30:22;15.70;99.90
27741;DHT22;15134;48.768;9.184;2022-10-15T07:32:50;15.70;99.90
27741;DHT22;15134;48.768;9.184;2022-10-15T07:35:16;15.80;99.90
27741;DHT22;15134;48.768;9.184;2022-10-15T07:37:41;15.70;99.90
27741;DHT22;15134;48.768;9.184;2022-10-15T07:40:07;15.70;99.90
27741;DHT22;15134;48.768;9.184;2022-10-15T07:42:33;15.80;99.90
27741;DHT22;15134;48.768;9.184;2022-10-15T07:44:59;15.90;99.90
27741;DHT22;15134;48.768;9.184;2022-10-15T07:47:25;16.00;99.90
27741;DHT22;15134;48.768;9.184;2022-10-15T07:49:51;16.00;99.90
27741;DHT22;15134;48.768;9.184;2022-10-15T07:52:16;16.10;99.90
27741;DHT22;15134;48.768;9.184;2022-10-15T07:54:42;16.10;99.90
27741;DHT22;15134;48.768;9.184;2022-10-15T07:57:08;16.20;99.90
27741;DHT22;15134;48.768;9.184;2022-10-15T07:59:34;16.10;99.90
27741;DHT22;15134;48.768;9.184;2022-10-15T08:02:00;16.20;99.90
27741;DHT22;15134;48.768;9.184;2022-10-15T08:04:25;16.10;99.90
27741;DHT22;15134;48.768;9.184;2022-10-15T08:06:51;16.10;99.90
27741;DHT22;15134;48.768;9.184;2022-10-15T08:09:17;16.10;99.90
27741;DHT22;15134;48.768;9.184;2022-10-15T08:11:43;16.10;99.90
27741;DHT22;15134;48.768;9.184;2022-10-15T08:14:11;16.10;99.90
27741;DHT22;15134;48.768;9.184;2022-10-15T08:16:36;16.10;99.90
27741;DHT22;15134;48.768;9.184;2022-10-15T08:19:02;16.10;99.90
27741;DHT22;15134;48.768;9.184;2022-10-15T08:21:28;16.10;99.90
27741;DHT22;15134;48.768;9.184;2022-10-15T08:23:54;16.20;99.90
27741;DHT22;15134;48.768;9.184;2022-10-15T08:26:28;16.20;99.90
27741;DHT22;15134;48.768;9.184;2022-10-15T08:28:54;16.30;99.90
27741;DHT22;15134;48.768;9.184;2022-10-15T08:31:21;16.50;99.90
27741;DHT22;15134;48.768;9.184;2022-10-15T08:33:46;16.60;99.90
27741;DHT22;15134;48.768;9.184;2022-10-15T08:36:12;16.80;99.90
27741;DHT22;15134;48.768;9.184;2022-10-15T08:38:41;17.00;99.90
27741;DHT22;15134;48.768;9.184;2022-10-15T08:43:45;17.30;99.90
27741;DHT22;15134;48.768;9.184;2022-10-15T08:46:30;17.40;99.90
27741;DHT22;15134;48.768;9.184;2022-10-15T08:48:59;17.30;99.90
27741;DHT22;15134;48.768;9.184;2022-10-15T08:51:39;17.20;99.90
27741;DHT22;15134;48.768;9.184;2022-10-15T08:54:12;17.10;99.90
27741;DHT22;15134;48.768;9.184;2022-10-15T08:56:42;17.00;99.90
27741;DHT22;15134;48.768;9.184;2022-10-15T08:59:19;16.90;99.90
27741;DHT22;15134;48.768;9.184;2022-10-15T09:01:51;16.80;99.90
27741;DHT22;15134;48.768;9.184;2022-10-15T09:04:24;16.70;99.90
27741;DHT22;15134;48.768;9.184;2022-10-15T09:07:23;16.70;99.90
27741;DHT22;15134;48.768;9.184;2022-10-15T09:09:51;16.70;99.90
27741;DHT22;15134;48.768;9.184;2022-10-15T09:15:11;16.90;99.90
27741;DHT22;15134;48.768;9.184;2022-10-15T09:17:38;17.00;99.90
27741;DHT22;15134;48.768;9.184;2022-10-15T09:20:12;17.00;99.90
27741;DHT22;15134;48.768;9.184;2022-10-15T09:22:40;16.90;99.90
27741;DHT22;15134;48.768;9.184;2022-10-15T09:25:20;17.00;99.90
27741;DHT22;15134;48.768;9.184;2022-10-15T09:27:50;17.10;99.90
27741;DHT22;15134;48.768;9.184;2022-10-15T09:32:49;17.10;99.90
27741;DHT22;15134;48.768;9.184;2022-10-15T09:35:40;17.10;99.90
27741;DHT22;15134;48.768;9.184;2022-10-15T09:38:24;17.10;99.90
27741;DHT22;15134;48.768;9.184;2022-10-15T09:43:48;17.20;99.90
27741;DHT22;15134;48.768;9.184;2022-10-15T09:46:15;17.30;99.90
27741;DHT22;15134;48.768;9.184;2022-10-15T09:48:51;17.40;99.90
27741;DHT22;15134;48.768;9.184;2022-10-15T09:51:33;17.50;99.90
27741;DHT22;15134;48.768;9.184;2022-10-15T09:56:37;17.70;99.90
27741;DHT22;15134;48.768;9.184;2022-10-15T09:59:03;17.90;99.90
27741;DHT22;15134;48.768;9.184;2022-10-15T10:01:31;18.20;99.90
27741;DHT22;15134;48.768;9.184;2022-10-15T10:04:13;18.50;99.90
27741;DHT22;15134;48.768;9.184;2022-10-15T10:07:04;18.80;99.90
27741;DHT22;15134;48.768;9.184;2022-10-15T10:09:45;19.20;99.90
27741;DHT22;15134;48.768;9.184;2022-10-15T10:12:20;19.40;99.90
27741;DHT22;15134;48.768;9.184;2022-10-15T10:14:59;19.50;99.90
27741;DHT22;15134;48.768;9.184;2022-10-15T10:17:27;19.60;99.90
27741;DHT22;15134;48.768;9.184;2022-10-15T10:20:15;19.60;99.90
27741;DHT22;15134;48.768;9.184;2022-10-15T10:30:32;20.10;99.90
27741;DHT22;15134;48.768;9.184;2022-10-15T10:32:59;20.30;99.90
27741;DHT22;15134;48.768;9.184;2022-10-15T10:35:35;20.30;99.90
27741;DHT22;15134;48.768;9.184;2022-10-15T10:38:20;20.30;99.90
27741;DHT22;15134;48.768;9.184;2022-10-15T10:40:54;20.10;99.90
27741;DHT22;15134;48.768;9.184;2022-10-15T10:43:27;19.90;99.90
27741;DHT22;15134;48.768;9.184;2022-10-15T10:45:58;19.80;99.90
27741;DHT22;15134;48.768;9.184;2022-10-15T10:48:26;19.80;99.90
27741;DHT22;15134;48.768;9.184;2022-10-15T10:51:24;19.90;99.90
27741;DHT22;15134;48.768;9.184;2022-10-15T10:54:04;20.10;99.90
27741;DHT22;15134;48.768;9.184;2022-10-15T10:56:39;20.30;99.90
27741;DHT22;15134;48.768;9.184;2022-10-15T10:59:17;20.40;99.90
27741;DHT22;15134;48.768;9.184;2022-10-15T11:01:46;20.40;99.90
27741;DHT22;15134;48.768;9.184;2022-10-15T11:07:04;20.70;99.90
27741;DHT22;15134;48.768;9.184;2022-10-15T11:09:45;20.80;99.90
27741;DHT22;15134;48.768;9.184;2022-10-15T11:20:27;20.40;99.90
27741;DHT22;15134;48.768;9.184;2022-10-15T11:23:03;20.20;99.90
27741;DHT22;15134;48.768;9.184;2022-10-15T11:28:52;19.80;99.90
27741;DHT22;15134;48.768;9.184;2022-10-15T11:55:44;19.70;99.90
27741;DHT22;15134;48.768;9.184;2022-10-15T11:58:26;19.70;99.90
27741;DHT22;15134;48.768;9.184;2022-10-15T12:00:57;19.60;99.90
27741;DHT22;15134;48.768;9.184;2022-10-15T12:03:30;19.70;99.90
27741;DHT22;15134;48.768;9.184;2022-10-15T12:06:04;19.70;99.90
27741;DHT22;15134;48.768;9.184;2022-10-15T12:08:34;19.70;99.90
27741;DHT22;15134;48.768;9.184;2022-10-15T12:14:29;19.50;99.90
27741;DHT22;15134;48.768;9.184;2022-10-15T12:17:05;19.40;99.90
27741;DHT22;15134;48.768;9.184;2022-10-15T12:19:40;19.40;99.90
27741;DHT22;15134;48.768;9.184;2022-10-15T12:22:09;19.40;99.90
27741;DHT22;15134;48.768;9.184;2022-10-15T12:32:48;19.50;99.90
27741;DHT22;15134;48.768;9.184;2022-10-15T12:37:42;19.30;99.90
27741;DHT22;15134;48.768;9.184;2022-10-15T12:43:01;19.00;99.90
27741;DHT22;15134;48.768;9.184;2022-10-15T12:45:35;18.90;99.90
27741;DHT22;15134;48.768;9.184;2022-10-15T12:50:34;18.80;99.90
27741;DHT22;15134;48.768;9.184;2022-10-15T12:58:47;18.60;99.90
27741;DHT22;15134;48.768;9.184;2022-10-15T13:16:36;18.20;99.90
27741;DHT22;15134;48.768;9.184;2022-10-15T13:19:03;18.20;99.90
27741;DHT22;15134;48.768;9.184;2022-10-15T13:21:48;18.10;99.90
27741;DHT22;15134;48.768;9.184;2022-10-15T13:24:20;18.10;99.90
27741;DHT22;15134;48.768;9.184;2022-10-15T13:26:46;18.10;99.90
27741;DHT22;15134;48.768;9.184;2022-10-15T13:29:14;18.10;99.90
27741;DHT22;15134;48.768;9.184;2022-10-15T13:31:40;18.10;99.90
27741;DHT22;15134;48.768;9.184;2022-10-15T13:36:35;18.10;99.90
27741;DHT22;15134;48.768;9.184;2022-10-15T13:39:07;18.10;99.90
27741;DHT22;15134;48.768;9.184;2022-10-15T13:41:43;18.10;99.90
27741;DHT22;15134;48.768;9.184;2022-10-15T13:44:22;18.10;99.90
27741;DHT22;15134;48.768;9.184;2022-10-15T13:46:49;18.00;99.90
27741;DHT22;15134;48.768;9.184;2022-10-15T13:49:17;18.00;99.90
27741;DHT22;15134;48.768;9.184;2022-10-15T13:51:46;18.00;99.90
27741;DHT22;15134;48.768;9.184;2022-10-15T13:54:24;18.00;99.90
27741;DHT22;15134;48.768;9.184;2022-10-15T13:56:54;18.00;99.90
27741;DHT22;15134;48.768;9.184;2022-10-15T13:59:23;17.90;99.90
27741;DHT22;15134;48.768;9.184;2022-10-15T14:01:56;17.80;99.90
27741;DHT22;15134;48.768;9.184;2022-10-15T14:04:30;17.80;99.90
27741;DHT22;15134;48.768;9.184;2022-10-15T14:07:17;17.70;99.90
27741;DHT22;15134;48.768;9.184;2022-10-15T14:09:45;17.60;99.90
27741;DHT22;15134;48.768;9.184;2022-10-15T14:12:11;17.70;99.90
27741;DHT22;15134;48.768;9.184;2022-10-15T14:14:40;17.60;99.90
27741;DHT22;15134;48.768;9.184;2022-10-15T14:17:09;17.60;99.90
27741;DHT22;15134;48.768;9.184;2022-10-15T14:19:39;17.60;99.90
27741;DHT22;15134;48.768;9.184;2022-10-15T14:22:05;17.60;99.90
27741;DHT22;15134;48.768;9.184;2022-10-15T14:24:35;17.70;99.90
27741;DHT22;15134;48.768;9.184;2022-10-15T14:27:11;17.70;99.90
27741;DHT22;15134;48.768;9.184;2022-10-15T14:29:49;17.70;99.90
27741;DHT22;15134;48.768;9.184;2022-10-15T14:35:20;17.60;99.90
27741;DHT22;15134;48.768;9.184;2022-10-15T14:37:46;17.60;99.90
27741;DHT22;15134;48.768;9.184;2022-10-15T14:40:22;17.60;99.90
27741;DHT22;15134;48.768;9.184;2022-10-15T14:45:30;17.60;99.90
27741;DHT22;15134;48.768;9.184;2022-10-15T14:48:23;17.60;99.90
27741;DHT22;15134;48.768;9.184;2022-10-15T14:50:49;17.70;99.90
27741;DHT22;15134;48.768;9.184;2022-10-15T14:53:20;17.70;99.90
27741;DHT22;15134;48.768;9.184;2022-10-15T14:55:56;17.70;99.90
27741;DHT22;15134;48.768;9.184;2022-10-15T14:58:23;17.70;99.90
27741;DHT22;15134;48.768;9.184;2022-10-15T15:01:02;17.60;99.90
27741;DHT22;15134;48.768;9.184;2022-10-15T15:03:41;17.60;99.90
27741;DHT22;15134;48.768;9.184;2022-10-15T15:06:08;17.60;99.90
27741;DHT22;15134;48.768;9.184;2022-10-15T15:08:34;17.60;99.90
27741;DHT22;15134;48.768;9.184;2022-10-15T15:11:02;17.70;99.90
27741;DHT22;15134;48.768;9.184;2022-10-15T15:13:30;17.70;99.90
27741;DHT22;15134;48.768;9.184;2022-10-15T15:15:56;17.70;99.90
27741;DHT22;15134;48.768;9.184;2022-10-15T15:18:22;17.80;99.90
27741;DHT22;15134;48.768;9.184;2022-10-15T15:20:49;17.80;99.90
27741;DHT22;15134;48.768;9.184;2022-10-15T15:23:17;17.80;99.90
27741;DHT22;15134;48.768;9.184;2022-10-15T15:25:44;17.90;99.90
27741;DHT22;15134;48.768;9.184;2022-10-15T15:28:15;17.90;99.90
27741;DHT22;15134;48.768;9.184;2022-10-15T15:30:42;18.00;99.90
27741;DHT22;15134;48.768;9.184;2022-10-15T15:33:13;17.90;99.90
27741;DHT22;15134;48.768;9.184;2022-10-15T15:35:49;18.00;99.90
27741;DHT22;15134;48.768;9.184;2022-10-15T15:38:19;18.00;99.90
27741;DHT22;15134;48.768;9.184;2022-10-15T15:40:46;17.90;99.90
27741;DHT22;15134;48.768;9.184;2022-10-15T15:43:14;17.90;99.90
27741;DHT22;15134;48.768;9.184;2022-10-15T15:45:40;18.00;99.90
27741;DHT22;15134;48.768;9.184;2022-10-15T15:48:06;18.00;99.90
27741;DHT22;15134;48.768;9.184;2022-10-15T15:50:31;18.00;99.90
27741;DHT22;15134;48.768;9.184;2022-10-15T15:52:57;18.00;99.90
27741;DHT22;15134;48.768;9.184;2022-10-15T15:55:23;18.00;99.90
27741;DHT22;15134;48.768;9.184;2022-10-15T15:57:49;17.90;99.90
27741;DHT22;15134;48.768;9.184;2022-10-15T16:00:15;17.90;99.90
27741;DHT22;15134;48.768;9.184;2022-10-15T16:02:41;17.80;99.90
27741;DHT22;15134;48.768;9.184;2022-10-15T16:05:08;17.80;99.90
27741;DHT22;15134;48.768;9.184;2022-10-15T16:07:35;17.70;99.90
27741;DHT22;15134;48.768;9.184;2022-10-15T16:10:01;17.60;99.90
27741;DHT22;15134;48.768;9.184;2022-10-15T16:12:30;17.50;99.90
27741;DHT22;15134;48.768;9.184;2022-10-15T16:14:58;17.50;99.90
27741;DHT22;15134;48.768;9.184;2022-10-15T16:17:24;17.40;99.90
27741;DHT22;15134;48.768;9.184;2022-10-15T16:19:50;17.40;99.90
27741;DHT22;15134;48.768;9.184;2022-10-15T16:22:16;17.40;99.90
27741;DHT22;15134;48.768;9.184;2022-10-15T16:24:41;17.30;99.90
27741;DHT22;15134;48.768;9.184;2022-10-15T16:27:07;17.20;99.90
27741;DHT22;15134;48.768;9.184;2022-10-15T16:29:33;17.20;99.90
27741;DHT22;15134;48.768;9.184;2022-10-15T16:31:58;17.20;99.90
27741;DHT22;15134;48.768;9.184;2022-10-15T16:34:24;17.20;99.90
27741;DHT22;15134;48.768;9.184;2022-10-15T16:36:50;17.10;99.90
27741;DHT22;15134;48.768;9.184;2022-10-15T16:39:15;17.10;99.90
27741;DHT22;15134;48.768;9.184;2022-10-15T16:41:41;17.10;99.90
27741;DHT22;15134;48.768;9.184;2022-10-15T16:44:07;17.00;99.90
27741;DHT22;15134;48.768;9.184;2022-10-15T16:46:33;17.00;99.90
27741;DHT22;15134;48.768;9.184;2022-10-15T16:48:58;17.00;99.90
27741;DHT22;15134;48.768;9.184;2022-10-15T16:51:24;17.00;99.90
27741;DHT22;15134;48.768;9.184;2022-10-15T16:53:51;17.00;99.90
27741;DHT22;15134;48.768;9.184;2022-10-15T16:56:20;17.00;99.90
27741;DHT22;15134;48.768;9.184;2022-10-15T16:58:46;17.00;99.90
27741;DHT22;15134;48.768;9.184;2022-10-15T17:01:14;17.00;99.90
27741;DHT22;15134;48.768;9.184;2022-10-15T17:03:41;17.00;99.90
27741;DHT22;15134;48.768;9.184;2022-10-15T17:06:10;17.00;99.90
27741;DHT22;15134;48.768;9.184;2022-10-15T17:11:15;17.00;99.90
27741;DHT22;15134;48.768;9.184;2022-10-15T17:13:41;17.00;99.90
27741;DHT22;15134;48.768;9.184;2022-10-15T17:16:16;17.00;99.90
27741;DHT22;15134;48.768;9.184;2022-10-15T17:18:42;17.00;99.90
27741;DHT22;15134;48.768;9.184;2022-10-15T17:21:14;17.00;99.90
27741;DHT22;15134;48.768;9.184;2022-10-15T17:23:41;17.00;99.90
27741;DHT22;15134;48.768;9.184;2022-10-15T17:26:14;16.90;99.90
27741;DHT22;15134;48.768;9.184;2022-10-15T17:28:42;17.00;99.90
27741;DHT22;15134;48.768;9.184;2022-10-15T17:31:11;17.00;99.90
27741;DHT22;15134;48.768;9.184;2022-10-15T17:33:38;16.90;99.90
27741;DHT22;15134;48.768;9.184;2022-10-15T17:36:07;16.90;99.90
27741;DHT22;15134;48.768;9.184;2022-10-15T17:38:33;16.90;99.90
27741;DHT22;15134;48.768;9.184;2022-10-15T17:40:59;16.90;99.90
27741;DHT22;15134;48.768;9.184;2022-10-15T17:43:30;16.90;99.90
27741;DHT22;15134;48.768;9.184;2022-10-15T17:46:04;16.80;99.90
27741;DHT22;15134;48.768;9.184;2022-10-15T17:48:31;16.90;99.90
27741;DHT22;15134;48.768;9.184;2022-10-15T17:51:00;16.90;99.90
27741;DHT22;15134;48.768;9.184;2022-10-15T17:53:27;16.80;99.90
27741;DHT22;15134;48.768;9.184;2022-10-15T17:55:53;16.80;99.90
27741;DHT22;15134;48.768;9.184;2022-10-15T17:58:19;16.80;99.90
27741;DHT22;15134;48.768;9.184;2022-10-15T18:00:51;16.80;99.90
27741;DHT22;15134;48.768;9.184;2022-10-15T18:03:17;16.80;99.90
27741;DHT22;15134;48.768;9.184;2022-10-15T18:05:43;16.80;99.90
27741;DHT22;15134;48.768;9.184;2022-10-15T18:08:09;16.80;99.90
27741;DHT22;15134;48.768;9.184;2022-10-15T18:10:36;16.80;99.90
27741;DHT22;15134;48.768;9.184;2022-10-15T18:13:03;16.80;99.90